createdAt,value
2022-11-17T00:00:09.844Z,17.96
2022-11-17T00:00:19.843Z,17.94
2022-11-17T00:00:29.840Z,17.96
2022-11-17T00:00:39.845Z,17.95
2022-11-17T00:00:49.848Z,17.95
2022-11-17T00:00:59.847Z,17.95
2022-11-17T00:01:09.851Z,17.96
2022-11-17T00:01:19.857Z,17.95
2022-11-17T00:01:29.851Z,17.95
2022-11-17T00:01:39.850Z,17.96
2022-11-17T00:01:49.851Z,17.95
2022-11-17T00:01:59.889Z,17.95
2022-11-17T00:02:09.890Z,17.95
2022-11-17T00:02:19.934Z,17.95
2022-11-17T00:02:29.920Z,17.94
2022-11-17T00:02:39.926Z,17.95
2022-11-17T00:02:49.911Z,17.93
2022-11-17T00:02:59.854Z,17.95
2022-11-17T00:03:09.856Z,17.95
2022-11-17T00:03:19.855Z,17.95
2022-11-17T00:03:29.861Z,17.95
2022-11-17T00:03:39.856Z,17.95
2022-11-17T00:03:49.858Z,17.96
2022-11-17T00:03:59.858Z,17.96
2022-11-17T00:04:09.858Z,17.95
2022-11-17T00:04:19.846Z,17.95
2022-11-17T00:04:29.866Z,17.94
2022-11-17T00:04:39.861Z,17.95
2022-11-17T00:04:49.860Z,17.95
2022-11-17T00:04:59.862Z,17.95
2022-11-17T00:05:09.861Z,17.95
2022-11-17T00:05:19.878Z,17.95
2022-11-17T00:05:29.863Z,17.93
2022-11-17T00:05:39.864Z,17.94
2022-11-17T00:05:49.867Z,17.94
2022-11-17T00:05:59.869Z,17.93
2022-11-17T00:06:09.871Z,17.95
2022-11-17T00:06:19.924Z,17.95
2022-11-17T00:06:29.870Z,17.96
2022-11-17T00:06:39.871Z,17.95
2022-11-17T00:06:49.925Z,17.95
2022-11-17T00:06:59.906Z,17.96
2022-11-17T00:07:09.917Z,17.95
2022-11-17T00:07:19.933Z,17.96
2022-11-17T00:07:29.944Z,17.95
2022-11-17T00:07:39.873Z,17.96
2022-11-17T00:07:49.879Z,17.95
2022-11-17T00:07:59.874Z,17.94
2022-11-17T00:08:09.879Z,17.95
2022-11-17T00:08:19.876Z,17.96
2022-11-17T00:08:29.878Z,17.95
2022-11-17T00:08:39.878Z,17.95
2022-11-17T00:08:49.880Z,17.96
2022-11-17T00:08:59.885Z,17.95
2022-11-17T00:09:09.884Z,17.96
2022-11-17T00:09:19.883Z,17.95
2022-11-17T00:09:29.880Z,17.97
2022-11-17T00:09:39.882Z,17.95
2022-11-17T00:09:49.888Z,17.96
2022-11-17T00:09:59.885Z,17.95
2022-11-17T00:10:09.885Z,17.96
2022-11-17T00:10:19.886Z,17.96
2022-11-17T00:10:29.887Z,17.95
2022-11-17T00:10:39.890Z,17.95
2022-11-17T00:10:49.876Z,17.95
2022-11-17T00:10:59.889Z,17.97
2022-11-17T00:11:09.891Z,17.96
2022-11-17T00:11:19.890Z,17.96
2022-11-17T00:11:29.892Z,17.96
2022-11-17T00:11:39.889Z,17.96
2022-11-17T00:11:49.894Z,17.95
2022-11-17T00:11:59.892Z,17.95
2022-11-17T00:12:09.894Z,17.96
2022-11-17T00:12:22.692Z,17.95
2022-11-17T00:12:32.799Z,17.94
2022-11-17T00:12:39.897Z,17.92
2022-11-17T00:12:49.895Z,17.93
2022-11-17T00:12:59.897Z,17.93
2022-11-17T00:13:09.897Z,17.94
2022-11-17T00:13:19.901Z,17.92
2022-11-17T00:13:29.903Z,17.93
2022-11-17T00:13:39.905Z,17.94
2022-11-17T00:13:49.900Z,17.92
2022-11-17T00:13:59.904Z,17.94
2022-11-17T00:14:09.903Z,17.94
2022-11-17T00:14:19.906Z,17.96
2022-11-17T00:14:29.903Z,17.94
2022-11-17T00:14:39.906Z,17.94
2022-11-17T00:14:49.923Z,17.94
2022-11-17T00:14:59.906Z,17.95
2022-11-17T00:15:09.907Z,17.95
2022-11-17T00:15:19.908Z,17.93
2022-11-17T00:15:29.917Z,17.95
2022-11-17T00:15:39.921Z,17.94
2022-11-17T00:15:49.907Z,17.93
2022-11-17T00:15:59.912Z,17.94
2022-11-17T00:16:09.910Z,17.94
2022-11-17T00:16:19.914Z,17.95
2022-11-17T00:16:29.921Z,17.93
2022-11-17T00:16:39.912Z,17.95
2022-11-17T00:16:49.918Z,17.94
2022-11-17T00:16:59.900Z,17.94
2022-11-17T00:17:09.913Z,17.94
2022-11-17T00:17:19.915Z,17.96
2022-11-17T00:17:29.922Z,17.94
2022-11-17T00:17:39.918Z,17.95
2022-11-17T00:17:49.919Z,17.96
2022-11-17T00:17:59.918Z,17.93
2022-11-17T00:18:09.917Z,17.93
2022-11-17T00:18:19.919Z,17.94
2022-11-17T00:18:29.923Z,17.95
2022-11-17T00:18:39.925Z,17.94
2022-11-17T00:18:49.923Z,17.96
2022-11-17T00:18:59.935Z,17.94
2022-11-17T00:19:09.924Z,17.94
2022-11-17T00:19:19.923Z,17.95
2022-11-17T00:19:29.927Z,17.95
2022-11-17T00:19:39.926Z,17.95
2022-11-17T00:19:49.927Z,17.97
2022-11-17T00:19:59.929Z,17.95
2022-11-17T00:20:09.927Z,17.95
2022-11-17T00:20:19.933Z,17.95
2022-11-17T00:20:29.929Z,17.97
2022-11-17T00:20:39.931Z,17.96
2022-11-17T00:20:49.930Z,17.96
2022-11-17T00:20:59.931Z,17.94
2022-11-17T00:21:09.956Z,17.95
2022-11-17T00:21:19.965Z,17.95
2022-11-17T00:21:29.938Z,17.94
2022-11-17T00:21:39.932Z,17.96
2022-11-17T00:21:49.935Z,17.96
2022-11-17T00:21:59.939Z,17.96
2022-11-17T00:22:09.936Z,17.96
2022-11-17T00:22:19.938Z,17.97
2022-11-17T00:22:29.937Z,17.97
2022-11-17T00:22:39.940Z,17.98
2022-11-17T00:22:49.942Z,17.96
2022-11-17T00:22:59.943Z,17.96
2022-11-17T00:23:09.943Z,17.96
2022-11-17T00:23:19.951Z,17.96
2022-11-17T00:23:29.944Z,17.96
2022-11-17T00:23:39.946Z,17.96
2022-11-17T00:23:50.405Z,17.97
2022-11-17T00:23:59.946Z,17.97
2022-11-17T00:24:09.946Z,17.96
2022-11-17T00:24:19.947Z,17.96
2022-11-17T00:24:29.948Z,17.96
2022-11-17T00:24:39.949Z,17.97
2022-11-17T00:24:49.947Z,17.98
2022-11-17T00:24:59.950Z,17.96
2022-11-17T00:25:09.947Z,17.96
2022-11-17T00:25:19.950Z,17.97
2022-11-17T00:25:29.973Z,17.95
2022-11-17T00:25:39.950Z,17.95
2022-11-17T00:25:49.955Z,17.95
2022-11-17T00:25:59.949Z,17.95
2022-11-17T00:26:09.951Z,17.97
2022-11-17T00:26:19.953Z,17.97
2022-11-17T00:26:29.952Z,17.96
2022-11-17T00:26:39.954Z,17.98
2022-11-17T00:26:49.955Z,17.98
2022-11-17T00:26:59.958Z,17.98
2022-11-17T00:27:09.958Z,17.96
2022-11-17T00:27:19.955Z,17.98
2022-11-17T00:27:29.966Z,17.97
2022-11-17T00:27:39.957Z,17.96
2022-11-17T00:27:49.960Z,17.97
2022-11-17T00:27:59.967Z,17.98
2022-11-17T00:28:09.966Z,17.96
2022-11-17T00:28:19.961Z,17.97
2022-11-17T00:28:29.963Z,17.98
2022-11-17T00:28:39.967Z,17.97
2022-11-17T00:28:49.962Z,17.97
2022-11-17T00:28:59.976Z,17.96
2022-11-17T00:29:09.967Z,17.96
2022-11-17T00:29:19.965Z,17.97
2022-11-17T00:29:29.974Z,17.97
2022-11-17T00:29:39.968Z,17.98
2022-11-17T00:29:49.966Z,17.97
2022-11-17T00:29:59.976Z,17.97
2022-11-17T00:30:09.970Z,17.98
2022-11-17T00:30:19.956Z,17.98
2022-11-17T00:30:30.015Z,17.97
2022-11-17T00:30:43.741Z,17.97
2022-11-17T00:30:49.973Z,17.96
2022-11-17T00:30:59.966Z,17.96
2022-11-17T00:31:09.973Z,17.96
2022-11-17T00:31:19.979Z,17.95
2022-11-17T00:31:29.973Z,17.96
2022-11-17T00:31:39.978Z,17.96
2022-11-17T00:31:49.975Z,17.96
2022-11-17T00:31:59.976Z,17.96
2022-11-17T00:32:09.980Z,17.96
2022-11-17T00:32:19.979Z,17.95
2022-11-17T00:32:29.982Z,17.97
2022-11-17T00:32:39.983Z,17.97
2022-11-17T00:32:49.984Z,17.97
2022-11-17T00:32:59.984Z,17.97
2022-11-17T00:33:09.987Z,17.98
2022-11-17T00:33:19.984Z,17.97
2022-11-17T00:33:29.983Z,17.98
2022-11-17T00:33:39.989Z,17.96
2022-11-17T00:33:49.989Z,17.99
2022-11-17T00:33:59.999Z,17.98
2022-11-17T00:34:09.987Z,17.97
2022-11-17T00:34:19.987Z,17.97
2022-11-17T00:34:29.988Z,17.97
2022-11-17T00:34:39.994Z,17.97
2022-11-17T00:34:49.990Z,17.97
2022-11-17T00:34:59.992Z,17.96
2022-11-17T00:35:10.010Z,17.97
2022-11-17T00:35:19.992Z,17.97
2022-11-17T00:35:29.995Z,17.96
2022-11-17T00:35:39.996Z,17.97
2022-11-17T00:35:49.996Z,17.96
2022-11-17T00:35:59.997Z,17.98
2022-11-17T00:36:09.999Z,17.98
2022-11-17T00:36:19.997Z,17.97
2022-11-17T00:36:29.996Z,17.98
2022-11-17T00:36:40.035Z,17.98
2022-11-17T00:36:50.007Z,18.00
2022-11-17T00:37:00.005Z,17.99
2022-11-17T00:37:10.000Z,17.99
2022-11-17T00:37:20.000Z,17.99
2022-11-17T00:37:30.004Z,18.00
2022-11-17T00:37:40.005Z,17.98
2022-11-17T00:37:50.005Z,17.99
2022-11-17T00:38:00.003Z,17.98
2022-11-17T00:38:10.006Z,17.99
2022-11-17T00:38:20.004Z,17.98
2022-11-17T00:38:30.003Z,17.98
2022-11-17T00:38:40.006Z,17.99
2022-11-17T00:38:50.012Z,17.98
2022-11-17T00:39:00.019Z,17.98
2022-11-17T00:39:10.009Z,17.99
2022-11-17T00:39:20.006Z,17.98
2022-11-17T00:39:30.010Z,17.99
2022-11-17T00:39:40.006Z,17.98
2022-11-17T00:39:50.019Z,17.99
2022-11-17T00:40:01.168Z,17.98
2022-11-17T00:40:10.009Z,17.99
2022-11-17T00:40:20.008Z,17.98
2022-11-17T00:40:30.012Z,17.99
2022-11-17T00:40:40.013Z,17.99
2022-11-17T00:40:50.011Z,17.99
2022-11-17T00:41:00.011Z,17.99
2022-11-17T00:41:10.013Z,17.98
2022-11-17T00:41:20.015Z,17.99
2022-11-17T00:41:30.017Z,17.97
2022-11-17T00:41:40.019Z,17.99
2022-11-17T00:41:50.033Z,17.99
2022-11-17T00:41:59.999Z,17.99
2022-11-17T00:42:10.021Z,17.98
2022-11-17T00:42:20.021Z,17.98
2022-11-17T00:42:30.017Z,17.99
2022-11-17T00:42:40.030Z,17.99
2022-11-17T00:42:50.027Z,17.97
2022-11-17T00:43:00.033Z,17.99
2022-11-17T00:43:10.020Z,17.97
2022-11-17T00:43:20.034Z,17.99
2022-11-17T00:43:30.021Z,17.98
2022-11-17T00:43:40.021Z,17.98
2022-11-17T00:43:50.036Z,17.98
2022-11-17T00:44:00.062Z,17.97
2022-11-17T00:44:10.530Z,17.99
2022-11-17T00:44:20.029Z,17.99
2022-11-17T00:44:30.028Z,17.98
2022-11-17T00:44:40.027Z,17.98
2022-11-17T00:44:50.045Z,17.98
2022-11-17T00:45:00.034Z,17.98
2022-11-17T00:45:10.032Z,17.98
2022-11-17T00:45:20.046Z,17.98
2022-11-17T00:45:30.039Z,17.98
2022-11-17T00:45:40.030Z,17.99
2022-11-17T00:45:50.035Z,17.98
2022-11-17T00:46:00.037Z,18.00
2022-11-17T00:46:10.034Z,18.00
2022-11-17T00:46:20.043Z,17.99
2022-11-17T00:46:30.046Z,17.99
2022-11-17T00:46:40.040Z,17.99
2022-11-17T00:46:50.049Z,17.99
2022-11-17T00:47:00.037Z,17.99
2022-11-17T00:47:10.041Z,17.97
2022-11-17T00:47:20.041Z,17.98
2022-11-17T00:47:30.044Z,17.97
2022-11-17T00:47:40.041Z,17.98
2022-11-17T00:47:50.046Z,17.97
2022-11-17T00:48:00.048Z,17.98
2022-11-17T00:48:10.047Z,17.98
2022-11-17T00:48:20.045Z,18.00
2022-11-17T00:48:30.040Z,17.99
2022-11-17T00:48:40.044Z,18.00
2022-11-17T00:48:50.046Z,17.98
2022-11-17T00:49:00.067Z,17.98
2022-11-17T00:49:10.047Z,17.98
2022-11-17T00:49:20.050Z,17.97
2022-11-17T00:49:30.036Z,17.98
2022-11-17T00:49:40.045Z,17.97
2022-11-17T00:49:50.053Z,17.98
2022-11-17T00:50:00.073Z,17.98
2022-11-17T00:50:10.053Z,17.98
2022-11-17T00:50:20.052Z,17.98
2022-11-17T00:50:30.050Z,17.98
2022-11-17T00:50:40.048Z,17.96
2022-11-17T00:50:50.055Z,17.98
2022-11-17T00:51:00.054Z,17.96
2022-11-17T00:51:10.066Z,17.97
2022-11-17T00:51:20.054Z,17.97
2022-11-17T00:51:30.059Z,17.95
2022-11-17T00:51:40.058Z,17.97
2022-11-17T00:51:50.057Z,17.95
2022-11-17T00:52:00.058Z,17.96
2022-11-17T00:52:10.059Z,17.96
2022-11-17T00:52:20.058Z,17.96
2022-11-17T00:52:30.061Z,17.98
2022-11-17T00:52:40.064Z,17.96
2022-11-17T00:52:50.064Z,17.96
2022-11-17T00:53:00.065Z,17.97
2022-11-17T00:53:10.063Z,17.96
2022-11-17T00:53:20.061Z,17.97
2022-11-17T00:53:30.063Z,17.97
2022-11-17T00:53:40.065Z,17.96
2022-11-17T00:53:50.072Z,17.97
2022-11-17T00:54:00.116Z,17.98
2022-11-17T00:54:10.071Z,17.96
2022-11-17T00:54:20.069Z,17.97
2022-11-17T00:54:30.069Z,17.97
2022-11-17T00:54:40.072Z,17.96
2022-11-17T00:54:50.075Z,17.97
2022-11-17T00:55:00.113Z,17.97
2022-11-17T00:55:10.104Z,17.98
2022-11-17T00:55:20.124Z,17.97
2022-11-17T00:55:30.175Z,17.98
2022-11-17T00:55:40.121Z,17.98
2022-11-17T00:55:50.220Z,17.97
2022-11-17T00:56:00.075Z,17.98
2022-11-17T00:56:10.106Z,17.98
2022-11-17T00:56:20.078Z,17.96
2022-11-17T00:56:30.077Z,17.97
2022-11-17T00:56:40.084Z,17.97
2022-11-17T00:56:50.080Z,17.96
2022-11-17T00:57:00.088Z,17.97
2022-11-17T00:57:10.069Z,17.98
2022-11-17T00:57:20.085Z,17.95
2022-11-17T00:57:30.086Z,17.96
2022-11-17T00:57:40.092Z,17.96
2022-11-17T00:57:50.086Z,17.95
2022-11-17T00:58:00.101Z,17.95
2022-11-17T00:58:10.091Z,17.95
2022-11-17T00:58:20.088Z,17.96
2022-11-17T00:58:30.090Z,17.96
2022-11-17T00:58:40.091Z,17.98
2022-11-17T00:58:50.092Z,17.97
2022-11-17T00:59:00.097Z,17.98
2022-11-17T00:59:10.096Z,17.97
2022-11-17T00:59:20.092Z,17.98
2022-11-17T00:59:30.094Z,17.98
2022-11-17T00:59:40.103Z,17.98
2022-11-17T00:59:50.093Z,17.96
2022-11-17T01:00:00.125Z,17.96
2022-11-17T01:00:10.103Z,17.97
2022-11-17T01:00:20.098Z,17.97
2022-11-17T01:00:30.097Z,17.97
2022-11-17T01:00:40.103Z,17.96
2022-11-17T01:00:50.124Z,17.97
2022-11-17T01:01:00.099Z,17.98
2022-11-17T01:01:10.144Z,17.97
2022-11-17T01:01:20.213Z,17.96
2022-11-17T01:01:30.228Z,17.97
2022-11-17T01:01:40.182Z,17.97
2022-11-17T01:01:50.193Z,17.96
2022-11-17T01:02:00.230Z,17.97
2022-11-17T01:02:10.090Z,17.97
2022-11-17T01:02:20.104Z,17.96
2022-11-17T01:02:30.106Z,17.96
2022-11-17T01:02:40.103Z,17.97
2022-11-17T01:02:50.103Z,17.97
2022-11-17T01:03:00.112Z,17.98
2022-11-17T01:03:10.106Z,17.96
2022-11-17T01:03:20.109Z,17.96
2022-11-17T01:03:30.109Z,17.96
2022-11-17T01:03:40.110Z,17.96
2022-11-17T01:03:50.113Z,17.95
2022-11-17T01:04:00.111Z,17.96
2022-11-17T01:04:10.114Z,17.95
2022-11-17T01:04:20.115Z,17.95
2022-11-17T01:04:30.116Z,17.96
2022-11-17T01:04:40.112Z,17.96
2022-11-17T01:04:50.114Z,17.96
2022-11-17T01:05:00.125Z,17.96
2022-11-17T01:05:10.114Z,17.95
2022-11-17T01:05:20.119Z,17.96
2022-11-17T01:05:33.065Z,17.96
2022-11-17T01:05:40.118Z,17.95
2022-11-17T01:05:50.120Z,17.95
2022-11-17T01:06:00.116Z,17.96
2022-11-17T01:06:10.120Z,17.93
2022-11-17T01:06:20.152Z,17.94
2022-11-17T01:06:30.120Z,17.94
2022-11-17T01:06:40.121Z,17.96
2022-11-17T01:06:50.199Z,17.96
2022-11-17T01:07:00.215Z,17.94
2022-11-17T01:07:10.144Z,17.96
2022-11-17T01:07:20.169Z,17.95
2022-11-17T01:07:30.218Z,17.95
2022-11-17T01:07:40.170Z,17.95
2022-11-17T01:07:50.131Z,17.95
2022-11-17T01:08:00.126Z,17.95
2022-11-17T01:08:10.128Z,17.94
2022-11-17T01:08:20.126Z,17.95
2022-11-17T01:08:30.127Z,17.95
2022-11-17T01:08:40.127Z,17.96
2022-11-17T01:08:50.136Z,17.95
2022-11-17T01:09:00.129Z,17.94
2022-11-17T01:09:10.133Z,17.94
2022-11-17T01:09:20.131Z,17.95
2022-11-17T01:09:30.130Z,17.95
2022-11-17T01:09:40.130Z,17.94
2022-11-17T01:09:50.133Z,17.94
2022-11-17T01:10:00.155Z,17.94
2022-11-17T01:10:10.133Z,17.94
2022-11-17T01:10:20.135Z,17.95
2022-11-17T01:10:30.134Z,17.93
2022-11-17T01:10:40.141Z,17.94
2022-11-17T01:10:50.136Z,17.94
2022-11-17T01:11:00.140Z,17.94
2022-11-17T01:11:10.138Z,17.93
2022-11-17T01:11:20.135Z,17.94
2022-11-17T01:11:30.145Z,17.94
2022-11-17T01:11:40.140Z,17.93
2022-11-17T01:11:50.142Z,17.93
2022-11-17T01:12:00.143Z,17.94
2022-11-17T01:12:10.146Z,17.93
2022-11-17T01:12:20.144Z,17.95
2022-11-17T01:12:30.151Z,17.94
2022-11-17T01:12:40.150Z,17.94
2022-11-17T01:12:50.145Z,17.93
2022-11-17T01:13:00.149Z,17.95
2022-11-17T01:13:10.145Z,17.95
2022-11-17T01:13:20.149Z,17.94
2022-11-17T01:13:30.151Z,17.93
2022-11-17T01:13:40.164Z,17.94
2022-11-17T01:13:50.157Z,17.95
2022-11-17T01:14:00.153Z,17.94
2022-11-17T01:14:10.151Z,17.94
2022-11-17T01:14:20.153Z,17.94
2022-11-17T01:14:30.157Z,17.93
2022-11-17T01:14:40.145Z,17.93
2022-11-17T01:14:50.143Z,17.93
2022-11-17T01:15:00.163Z,17.93
2022-11-17T01:15:10.161Z,17.92
2022-11-17T01:15:20.154Z,17.92
2022-11-17T01:15:30.157Z,17.92
2022-11-17T01:15:40.158Z,17.92
2022-11-17T01:15:50.157Z,17.92
2022-11-17T01:16:00.159Z,17.92
2022-11-17T01:16:11.039Z,17.93
2022-11-17T01:16:20.162Z,17.92
2022-11-17T01:16:30.159Z,17.92
2022-11-17T01:16:40.162Z,17.92
2022-11-17T01:16:50.159Z,17.93
2022-11-17T01:17:00.163Z,17.92
2022-11-17T01:17:10.159Z,17.92
2022-11-17T01:17:20.189Z,17.93
2022-11-17T01:17:30.164Z,17.92
2022-11-17T01:17:40.166Z,17.90
2022-11-17T01:17:50.165Z,17.91
2022-11-17T01:18:00.163Z,17.93
2022-11-17T01:18:10.164Z,17.92
2022-11-17T01:18:20.166Z,17.91
2022-11-17T01:18:30.167Z,17.93
2022-11-17T01:18:40.168Z,17.93
2022-11-17T01:18:50.168Z,17.93
2022-11-17T01:19:00.168Z,17.93
2022-11-17T01:19:10.232Z,17.91
2022-11-17T01:19:20.170Z,17.92
2022-11-17T01:19:30.170Z,17.92
2022-11-17T01:19:40.158Z,17.92
2022-11-17T01:19:50.177Z,17.93
2022-11-17T01:20:00.183Z,17.93
2022-11-17T01:20:10.174Z,17.92
2022-11-17T01:20:20.172Z,17.93
2022-11-17T01:20:30.174Z,17.93
2022-11-17T01:20:40.175Z,17.93
2022-11-17T01:20:50.178Z,17.93
2022-11-17T01:21:00.177Z,17.92
2022-11-17T01:21:10.178Z,17.91
2022-11-17T01:21:20.179Z,17.93
2022-11-17T01:21:30.179Z,17.93
2022-11-17T01:21:40.180Z,17.92
2022-11-17T01:21:50.183Z,17.92
2022-11-17T01:22:00.183Z,17.93
2022-11-17T01:22:10.182Z,17.93
2022-11-17T01:22:20.184Z,17.93
2022-11-17T01:22:30.186Z,17.94
2022-11-17T01:22:40.189Z,17.96
2022-11-17T01:22:50.188Z,17.95
2022-11-17T01:23:00.184Z,17.94
2022-11-17T01:23:10.191Z,17.96
2022-11-17T01:23:20.186Z,17.96
2022-11-17T01:23:30.188Z,17.95
2022-11-17T01:23:40.189Z,17.95
2022-11-17T01:23:50.185Z,17.95
2022-11-17T01:24:00.191Z,17.95
2022-11-17T01:24:10.197Z,17.95
2022-11-17T01:24:20.189Z,17.94
2022-11-17T01:24:30.191Z,17.95
2022-11-17T01:24:40.192Z,17.93
2022-11-17T01:24:50.192Z,17.94
2022-11-17T01:25:00.291Z,17.96
2022-11-17T01:25:10.201Z,17.96
2022-11-17T01:25:20.197Z,17.95
2022-11-17T01:25:30.196Z,17.96
2022-11-17T01:25:40.198Z,17.96
2022-11-17T01:25:50.199Z,17.95
2022-11-17T01:26:00.198Z,17.94
2022-11-17T01:26:10.200Z,17.94
2022-11-17T01:26:20.202Z,17.96
2022-11-17T01:26:30.202Z,17.96
2022-11-17T01:26:40.202Z,17.96
2022-11-17T01:26:50.204Z,17.95
2022-11-17T01:27:00.204Z,17.93
2022-11-17T01:27:10.204Z,17.95
2022-11-17T01:27:20.206Z,17.94
2022-11-17T01:27:30.208Z,17.93
2022-11-17T01:27:40.205Z,17.93
2022-11-17T01:27:50.212Z,17.94
2022-11-17T01:28:00.212Z,17.94
2022-11-17T01:28:10.209Z,17.95
2022-11-17T01:28:20.237Z,17.94
2022-11-17T01:28:30.211Z,17.96
2022-11-17T01:28:40.212Z,17.95
2022-11-17T01:28:50.211Z,17.95
2022-11-17T01:29:00.213Z,17.94
2022-11-17T01:29:10.217Z,17.93
2022-11-17T01:29:20.217Z,17.94
2022-11-17T01:29:30.216Z,17.94
2022-11-17T01:29:40.215Z,17.95
2022-11-17T01:29:50.214Z,17.93
2022-11-17T01:30:00.217Z,17.92
2022-11-17T01:30:10.216Z,17.92
2022-11-17T01:30:20.219Z,17.92
2022-11-17T01:30:30.222Z,17.93
2022-11-17T01:30:40.221Z,17.92
2022-11-17T01:30:50.224Z,17.93
2022-11-17T01:31:00.225Z,17.92
2022-11-17T01:31:10.226Z,17.94
2022-11-17T01:31:20.228Z,17.92
2022-11-17T01:31:30.238Z,17.92
2022-11-17T01:31:40.223Z,17.95
2022-11-17T01:31:50.223Z,17.93
2022-11-17T01:32:00.278Z,17.92
2022-11-17T01:32:10.227Z,17.93
2022-11-17T01:32:20.224Z,17.92
2022-11-17T01:32:30.227Z,17.94
2022-11-17T01:32:40.229Z,17.92
2022-11-17T01:32:50.230Z,17.93
2022-11-17T01:33:00.229Z,17.92
2022-11-17T01:33:10.227Z,17.92
2022-11-17T01:33:20.231Z,17.92
2022-11-17T01:33:30.238Z,17.92
2022-11-17T01:33:40.231Z,17.92
2022-11-17T01:33:50.233Z,17.93
2022-11-17T01:34:00.233Z,17.93
2022-11-17T01:34:10.233Z,17.93
2022-11-17T01:34:20.233Z,17.92
2022-11-17T01:34:30.236Z,17.91
2022-11-17T01:34:40.234Z,17.92
2022-11-17T01:34:50.235Z,17.91
2022-11-17T01:35:00.272Z,17.93
2022-11-17T01:35:10.263Z,17.92
2022-11-17T01:35:20.242Z,17.92
2022-11-17T01:35:30.237Z,17.92
2022-11-17T01:35:40.244Z,17.91
2022-11-17T01:35:50.238Z,17.91
2022-11-17T01:36:00.237Z,17.92
2022-11-17T01:36:10.240Z,17.91
2022-11-17T01:36:20.243Z,17.92
2022-11-17T01:36:30.240Z,17.92
2022-11-17T01:36:40.241Z,17.92
2022-11-17T01:36:50.242Z,17.91
2022-11-17T01:37:00.243Z,17.91
2022-11-17T01:37:10.244Z,17.90
2022-11-17T01:37:20.244Z,17.91
2022-11-17T01:37:30.246Z,17.91
2022-11-17T01:37:40.246Z,17.91
2022-11-17T01:37:50.246Z,17.90
2022-11-17T01:38:00.247Z,17.92
2022-11-17T01:38:10.259Z,17.93
2022-11-17T01:38:20.250Z,17.91
2022-11-17T01:38:30.248Z,17.90
2022-11-17T01:38:40.250Z,17.91
2022-11-17T01:38:50.249Z,17.93
2022-11-17T01:39:00.253Z,17.92
2022-11-17T01:39:10.254Z,17.90
2022-11-17T01:39:20.248Z,17.92
2022-11-17T01:39:30.262Z,17.92
2022-11-17T01:39:40.250Z,17.91
2022-11-17T01:39:50.252Z,17.92
2022-11-17T01:40:00.252Z,17.92
2022-11-17T01:40:10.347Z,17.93
2022-11-17T01:40:20.254Z,17.90
2022-11-17T01:40:30.260Z,17.92
2022-11-17T01:40:40.261Z,17.92
2022-11-17T01:40:50.257Z,17.91
2022-11-17T01:41:00.260Z,17.91
2022-11-17T01:41:10.262Z,17.91
2022-11-17T01:41:20.260Z,17.91
2022-11-17T01:41:30.259Z,17.91
2022-11-17T01:41:40.261Z,17.89
2022-11-17T01:41:50.265Z,17.90
2022-11-17T01:42:00.263Z,17.91
2022-11-17T01:42:10.261Z,17.91
2022-11-17T01:42:20.262Z,17.91
2022-11-17T01:42:30.264Z,17.91
2022-11-17T01:42:40.259Z,17.90
2022-11-17T01:42:50.265Z,17.89
2022-11-17T01:43:00.268Z,17.91
2022-11-17T01:43:10.264Z,17.91
2022-11-17T01:43:20.266Z,17.91
2022-11-17T01:43:30.278Z,17.90
2022-11-17T01:43:40.265Z,17.91
2022-11-17T01:43:50.269Z,17.91
2022-11-17T01:44:00.268Z,17.92
2022-11-17T01:44:10.279Z,17.90
2022-11-17T01:44:20.270Z,17.90
2022-11-17T01:44:30.270Z,17.90
2022-11-17T01:44:40.273Z,17.88
2022-11-17T01:44:50.269Z,17.89
2022-11-17T01:45:00.275Z,17.89
2022-11-17T01:45:10.272Z,17.90
2022-11-17T01:45:20.272Z,17.90
2022-11-17T01:45:30.275Z,17.90
2022-11-17T01:45:40.274Z,17.92
2022-11-17T01:45:50.275Z,17.89
2022-11-17T01:46:00.279Z,17.89
2022-11-17T01:46:10.275Z,17.89
2022-11-17T01:46:20.277Z,17.90
2022-11-17T01:46:30.280Z,17.90
2022-11-17T01:46:40.278Z,17.89
2022-11-17T01:46:50.278Z,17.89
2022-11-17T01:47:01.209Z,17.90
2022-11-17T01:47:10.282Z,17.89
2022-11-17T01:47:20.284Z,17.89
2022-11-17T01:47:30.281Z,17.90
2022-11-17T01:47:40.289Z,17.90
2022-11-17T01:47:50.286Z,17.90
2022-11-17T01:48:00.284Z,17.90
2022-11-17T01:48:10.286Z,17.90
2022-11-17T01:48:20.270Z,17.90
2022-11-17T01:48:30.288Z,17.89
2022-11-17T01:48:40.290Z,17.90
2022-11-17T01:48:50.288Z,17.90
2022-11-17T01:49:00.293Z,17.89
2022-11-17T01:49:10.290Z,17.88
2022-11-17T01:49:20.292Z,17.89
2022-11-17T01:49:30.292Z,17.87
2022-11-17T01:49:40.289Z,17.89
2022-11-17T01:49:50.290Z,17.89
2022-11-17T01:50:00.293Z,17.90
2022-11-17T01:50:10.280Z,17.90
2022-11-17T01:50:20.293Z,17.89
2022-11-17T01:50:30.294Z,17.89
2022-11-17T01:50:40.293Z,17.89
2022-11-17T01:50:50.298Z,17.90
2022-11-17T01:51:00.300Z,17.89
2022-11-17T01:51:10.299Z,17.89
2022-11-17T01:51:20.307Z,17.90
2022-11-17T01:51:30.285Z,17.90
2022-11-17T01:51:40.299Z,17.91
2022-11-17T01:51:50.298Z,17.89
2022-11-17T01:52:00.310Z,17.91
2022-11-17T01:52:10.301Z,17.90
2022-11-17T01:52:20.302Z,17.89
2022-11-17T01:52:30.304Z,17.91
2022-11-17T01:52:40.303Z,17.88
2022-11-17T01:52:50.304Z,17.91
2022-11-17T01:53:00.309Z,17.91
2022-11-17T01:53:10.301Z,17.92
2022-11-17T01:53:20.303Z,17.91
2022-11-17T01:53:30.306Z,17.91
2022-11-17T01:53:40.309Z,17.91
2022-11-17T01:53:50.311Z,17.92
2022-11-17T01:54:00.317Z,17.93
2022-11-17T01:54:10.315Z,17.92
2022-11-17T01:54:20.310Z,17.89
2022-11-17T01:54:30.310Z,17.92
2022-11-17T01:54:40.315Z,17.93
2022-11-17T01:54:50.313Z,17.91
2022-11-17T01:55:00.313Z,17.92
2022-11-17T01:55:10.314Z,17.93
2022-11-17T01:55:20.312Z,17.91
2022-11-17T01:55:30.323Z,17.91
2022-11-17T01:55:40.317Z,17.91
2022-11-17T01:55:50.328Z,17.92
2022-11-17T01:56:00.341Z,17.91
2022-11-17T01:56:10.315Z,17.93
2022-11-17T01:56:20.317Z,17.92
2022-11-17T01:56:30.317Z,17.91
2022-11-17T01:56:40.317Z,17.93
2022-11-17T01:56:50.318Z,17.91
2022-11-17T01:57:00.321Z,17.92
2022-11-17T01:57:10.321Z,17.93
2022-11-17T01:57:20.321Z,17.92
2022-11-17T01:57:30.321Z,17.93
2022-11-17T01:57:40.326Z,17.91
2022-11-17T01:57:50.328Z,17.91
2022-11-17T01:58:00.333Z,17.93
2022-11-17T01:58:10.325Z,17.92
2022-11-17T01:58:20.325Z,17.92
2022-11-17T01:58:30.331Z,17.92
2022-11-17T01:58:40.327Z,17.93
2022-11-17T01:58:50.326Z,17.92
2022-11-17T01:59:00.329Z,17.91
2022-11-17T01:59:10.330Z,17.92
2022-11-17T01:59:20.329Z,17.92
2022-11-17T01:59:30.330Z,17.92
2022-11-17T01:59:40.331Z,17.93
2022-11-17T01:59:50.330Z,17.94
2022-11-17T02:00:00.335Z,17.93
2022-11-17T02:00:10.337Z,17.93
2022-11-17T02:00:20.334Z,17.93
2022-11-17T02:00:30.336Z,17.91
2022-11-17T02:00:40.339Z,17.93
2022-11-17T02:00:50.341Z,17.94
2022-11-17T02:01:00.346Z,17.93
2022-11-17T02:01:10.407Z,17.93
2022-11-17T02:01:20.406Z,17.93
2022-11-17T02:01:30.413Z,17.93
2022-11-17T02:01:40.378Z,17.94
2022-11-17T02:01:50.463Z,17.94
2022-11-17T02:02:00.396Z,17.92
2022-11-17T02:02:10.344Z,17.93
2022-11-17T02:02:20.349Z,17.93
2022-11-17T02:02:30.346Z,17.93
2022-11-17T02:02:40.353Z,17.93
2022-11-17T02:02:50.348Z,17.95
2022-11-17T02:03:00.350Z,17.94
2022-11-17T02:03:10.351Z,17.94
2022-11-17T02:03:20.351Z,17.96
2022-11-17T02:03:30.355Z,17.94
2022-11-17T02:03:40.357Z,17.94
2022-11-17T02:03:50.352Z,17.94
2022-11-17T02:04:00.353Z,17.96
2022-11-17T02:04:10.359Z,17.94
2022-11-17T02:04:20.356Z,17.96
2022-11-17T02:04:30.356Z,17.95
2022-11-17T02:04:40.357Z,17.93
2022-11-17T02:04:50.361Z,17.95
2022-11-17T02:05:00.381Z,17.92
2022-11-17T02:05:10.360Z,17.95
2022-11-17T02:05:20.365Z,17.93
2022-11-17T02:05:30.347Z,17.94
2022-11-17T02:05:40.392Z,17.93
2022-11-17T02:05:50.368Z,17.94
2022-11-17T02:06:00.366Z,17.94
2022-11-17T02:06:10.364Z,17.93
2022-11-17T02:06:20.367Z,17.94
2022-11-17T02:06:30.365Z,17.93
2022-11-17T02:06:40.368Z,17.94
2022-11-17T02:06:50.402Z,17.92
2022-11-17T02:07:00.404Z,17.94
2022-11-17T02:07:10.391Z,17.91
2022-11-17T02:07:20.419Z,17.92
2022-11-17T02:07:30.402Z,17.92
2022-11-17T02:07:40.374Z,17.93
2022-11-17T02:07:50.377Z,17.92
2022-11-17T02:08:00.375Z,17.92
2022-11-17T02:08:10.373Z,17.93
2022-11-17T02:08:20.376Z,17.93
2022-11-17T02:08:30.376Z,17.93
2022-11-17T02:08:40.379Z,17.93
2022-11-17T02:08:50.362Z,17.93